Biddeford, ME

11:02 AM EDT on September 01, 2015 (GMT -0400)
Saco Bay | | Change Station
CLOSE
Current Station
Personal Weather Station
Location: Saco, ME
Elevation: 16 ft
Nearby Weather Stations

Elev 16 ft 43.49 °N, 70.39 °W | Updated 14 minutes ago

Clear
Clear
75.0 °F
Feels Like 78 °F
N
3.7
Wind Variable Wind from ESE

Today
High -- | Low -- °F
--% Chance of Precip.
Yesterday
High -- | Low -- °F
Precip. -- in
6:05 AM 7:17 PM
Waning Gibbous, 88% visible
Pressure 30.06 in
Visibility 10.0 miles
Clouds Few 5500 ft
Few 25000 ft
Heat Index 78 °F
Dew Point 57 °F
Humidity 54%
Rainfall 0.00 in
Snow Depth Not available.
UV 6 out of 12
Pollen 8.30 out of 12
Air Quality Not available.
Flu Activity Not available.
METAR KPWM 011451Z 04006KT 10SM FEW055 FEW250 24/13 A3006 RMK AO2 SLP177 T02440133 53007
Pressure 30.06 in
Visibility 10.0 miles
Clouds Few 5500 ft
Few 25000 ft
Heat Index 78 °F
Dew Point 57 °F
Humidity 54%
Rainfall 0.00 in
Snow Depth Not available.
UV 6 out of 12
Pollen 8.30 out of 12
Air Quality Not available.
Flu Activity Not available.
METAR KPWM 011451Z 04006KT 10SM FEW055 FEW250 24/13 A3006 RMK AO2 SLP177 T02440133 53007

10-Day Weather Forecast

×

Almanac

Astronomy

Sep. 01, 2015 Rise Set
Actual Time
Civil Twilight
Nautical Twilight
Astronomical Twilight
Moon
Length of Visible Light
Length of Day
Tomorrow will be .
, % of the Moon is Illuminated

Today's Extremes

State Highs State Lows

Community

WunderPhotos

Upload Photos

1,851,520 photos uploaded!

WunderBlogs® & News

Nearby

Air Quality

  Air Quality AQ Index Pollutant
Not available.

Snow Depth

Station Depth Elevation

Earthquake Activity

City Distance Mag. Time & Date
Minimum magnitude displayed is 2.5.

Coastal Water Temperatures

Place Temperature

Stations

Nearby Weather Stations

Station Location Temp. Windchill Dew Point Humidity Wind Precip. Elev Updated Type